Terminal Aerodrome Forecast
Issued by NWS St Louis, MO

Home | Current Version | Previous Version | Text Only | Print | Product List | Glossary On
Versions: 1 2 3 4 5 6 7 8 9 10 11 12 13 14
000
FTUS43 KLSX 252030 AAB
TAFCOU
TAF AMD
KCOU 252030Z 2521/2618 30011KT P6SM VCSH BKN035
     FM252200 31011KT 6SM -SHRA OVC035
     FM260200 31011KT P6SM BKN040
     FM260800 31007KT P6SM SKC
     FM261500 31010KT P6SM SKC=

USA.gov is the U.S. government's official web portal to all federal, state and local government web resources and services.